createdAt,value
2019-02-19T00:02:10.713Z,7.35
2019-02-19T00:04:42.005Z,7.15
2019-02-19T00:07:13.271Z,7.40
2019-02-19T00:09:44.441Z,7.10
2019-02-19T00:12:15.807Z,7.03
2019-02-19T00:14:47.047Z,7.17
2019-02-19T00:17:18.252Z,7.17
2019-02-19T00:19:49.428Z,7.87
2019-02-19T00:22:20.624Z,7.85
2019-02-19T00:24:51.855Z,7.75
2019-02-19T00:27:23.033Z,7.12
2019-02-19T00:29:54.451Z,7.72
2019-02-19T00:32:25.623Z,7.28
2019-02-19T00:34:56.651Z,7.25
2019-02-19T00:37:27.880Z,7.45
2019-02-19T00:39:59.157Z,6.67
2019-02-19T00:42:30.373Z,7.85
2019-02-19T00:45:01.485Z,7.65
2019-02-19T00:47:32.971Z,7.05
2019-02-19T00:50:05.033Z,7.90
2019-02-19T00:52:36.111Z,7.87
2019-02-19T00:55:07.833Z,7.60
2019-02-19T00:57:39.264Z,8.13
2019-02-19T01:00:12.431Z,7.22
2019-02-19T01:02:43.637Z,8.00
2019-02-19T01:05:15.128Z,7.20
2019-02-19T01:07:47.021Z,6.75
2019-02-19T01:10:18.329Z,7.22
2019-02-19T01:12:49.608Z,7.90
2019-02-19T01:15:25.518Z,7.58
2019-02-19T01:17:53.680Z,7.70
2019-02-19T01:20:24.750Z,8.23
2019-02-19T01:22:55.879Z,8.23
2019-02-19T01:25:26.966Z,7.28
2019-02-19T01:27:58.101Z,7.87
2019-02-19T01:30:29.273Z,7.87
2019-02-19T01:33:00.406Z,8.18
2019-02-19T01:35:31.431Z,7.83
2019-02-19T01:38:02.599Z,7.83
2019-02-19T01:40:34.026Z,7.95
2019-02-19T01:43:05.291Z,8.13
2019-02-19T01:45:36.571Z,9.00
2019-02-19T01:48:07.765Z,7.60
2019-02-19T01:50:39.319Z,7.65
2019-02-19T01:53:10.459Z,8.45
2019-02-19T01:55:41.724Z,8.25
2019-02-19T01:58:12.832Z,7.83
2019-02-19T02:00:44.011Z,8.05
2019-02-19T02:03:15.135Z,8.45
2019-02-19T02:05:46.160Z,8.40
2019-02-19T02:08:17.278Z,7.65
2019-02-19T02:10:48.831Z,8.48
2019-02-19T02:13:20.063Z,7.92
2019-02-19T02:15:51.175Z,7.97
2019-02-19T02:18:23.484Z,8.20
2019-02-19T02:20:54.970Z,8.18
2019-02-19T02:23:26.318Z,8.35
2019-02-19T02:25:57.771Z,8.48
2019-02-19T02:28:28.812Z,7.95
2019-02-19T02:30:59.986Z,7.67
2019-02-19T02:33:31.105Z,7.92
2019-02-19T02:36:02.220Z,7.83
2019-02-19T02:38:33.325Z,8.20
2019-02-19T02:41:04.968Z,7.90
2019-02-19T02:43:36.029Z,8.10
2019-02-19T02:46:07.161Z,7.85
2019-02-19T02:48:38.285Z,7.62
2019-02-19T02:51:09.458Z,7.83
2019-02-19T02:53:40.532Z,8.30
2019-02-19T02:56:11.785Z,8.45
2019-02-19T02:58:42.906Z,8.13
2019-02-19T03:01:14.017Z,8.23
2019-02-19T03:03:45.411Z,8.88
2019-02-19T03:06:25.155Z,8.55
2019-02-19T03:08:56.519Z,8.23
2019-02-19T03:11:27.694Z,8.55
2019-02-19T03:13:59.110Z,8.18
2019-02-19T03:16:30.208Z,8.55
2019-02-19T03:19:01.332Z,8.18
2019-02-19T03:21:32.488Z,9.03
2019-02-19T03:24:03.879Z,9.03
2019-02-19T03:26:34.891Z,8.75
2019-02-19T03:29:06.233Z,8.33
2019-02-19T03:31:37.338Z,8.20
2019-02-19T03:34:08.455Z,8.03
2019-02-19T03:36:39.597Z,8.20
2019-02-19T03:39:10.783Z,8.75
2019-02-19T03:41:41.992Z,7.97
2019-02-19T03:44:13.057Z,7.45
2019-02-19T03:46:44.156Z,7.37
2019-02-19T03:49:15.286Z,8.23
2019-02-19T03:51:46.373Z,7.42
2019-02-19T03:54:17.565Z,7.80
2019-02-19T03:56:48.806Z,8.23
2019-02-19T03:59:19.987Z,7.80
2019-02-19T04:01:51.271Z,8.80
2019-02-19T04:04:22.472Z,15.13
2019-02-19T04:06:53.572Z,19.87
2019-02-19T04:09:25.021Z,14.63
2019-02-19T04:11:56.128Z,11.43
2019-02-19T04:14:27.172Z,8.73
2019-02-19T04:16:58.407Z,8.20
2019-02-19T04:19:29.603Z,7.83
2019-02-19T04:22:01.764Z,8.20
2019-02-19T04:24:32.816Z,8.65
2019-02-19T04:27:03.976Z,9.20
2019-02-19T04:29:35.327Z,8.55
2019-02-19T04:32:06.796Z,8.73
2019-02-19T04:34:37.840Z,9.78
2019-02-19T04:37:09.023Z,9.45
2019-02-19T04:39:40.429Z,8.78
2019-02-19T04:42:11.747Z,9.08
2019-02-19T04:44:42.884Z,9.35
2019-02-19T04:47:14.271Z,9.85
2019-02-19T04:49:45.476Z,8.45
2019-02-19T04:52:16.864Z,8.15
2019-02-19T04:54:47.985Z,7.95
2019-02-19T04:57:19.029Z,7.65
2019-02-19T04:59:50.502Z,7.95
2019-02-19T05:02:21.711Z,7.33
2019-02-19T05:04:53.288Z,7.90
2019-02-19T05:07:24.619Z,7.17
2019-02-19T05:09:55.729Z,7.97
2019-02-19T05:12:26.741Z,7.70
2019-02-19T05:14:58.273Z,8.50
2019-02-19T05:17:29.430Z,7.00
2019-02-19T05:20:00.543Z,7.47
2019-02-19T05:22:31.692Z,6.72
2019-02-19T05:25:02.826Z,7.25
2019-02-19T05:27:33.842Z,7.12
2019-02-19T05:30:05.484Z,7.70
2019-02-19T05:32:36.656Z,7.62
2019-02-19T05:35:08.029Z,8.08
2019-02-19T05:37:39.201Z,8.40
2019-02-19T05:40:10.479Z,8.33
2019-02-19T05:42:41.797Z,6.72
2019-02-19T05:45:13.424Z,8.48
2019-02-19T05:47:44.438Z,8.00
2019-02-19T05:50:15.634Z,8.68
2019-02-19T05:52:46.717Z,8.30
2019-02-19T05:55:17.840Z,8.43
2019-02-19T05:57:49.540Z,7.58
2019-02-19T06:00:21.023Z,8.23
2019-02-19T06:02:52.649Z,7.90
2019-02-19T06:05:23.697Z,8.13
2019-02-19T06:07:55.136Z,8.45
2019-02-19T06:10:26.330Z,7.40
2019-02-19T06:12:57.489Z,7.78
2019-02-19T06:15:28.615Z,7.92
2019-02-19T06:18:00.431Z,7.05
2019-02-19T06:20:31.778Z,8.08
2019-02-19T06:23:02.940Z,7.62
2019-02-19T06:25:34.373Z,7.95
2019-02-19T06:28:05.479Z,8.23
2019-02-19T06:30:36.696Z,7.80
2019-02-19T06:33:07.936Z,9.10
2019-02-19T06:35:39.459Z,8.65
2019-02-19T06:38:11.015Z,10.18
2019-02-19T06:40:42.152Z,11.55
2019-02-19T06:43:13.331Z,11.22
2019-02-19T06:45:44.608Z,8.85
2019-02-19T06:48:15.736Z,8.80
2019-02-19T06:50:46.930Z,8.43
2019-02-19T06:53:18.097Z,8.70
2019-02-19T06:55:49.319Z,8.73
2019-02-19T06:58:20.414Z,8.58
2019-02-19T07:00:51.614Z,8.58
2019-02-19T07:03:30.324Z,8.93
2019-02-19T07:06:01.534Z,10.58
2019-02-19T07:08:32.580Z,10.63
2019-02-19T07:11:03.776Z,10.70
2019-02-19T07:13:35.066Z,11.33
2019-02-19T07:16:06.412Z,12.28
2019-02-19T07:18:37.511Z,12.63
2019-02-19T07:21:08.720Z,12.23
2019-02-19T07:23:39.744Z,13.98
2019-02-19T07:26:11.008Z,12.07
2019-02-19T07:28:42.180Z,13.08
2019-02-19T07:31:13.392Z,13.35
2019-02-19T07:33:44.569Z,11.50
2019-02-19T07:36:15.706Z,11.28
2019-02-19T07:38:46.835Z,13.08
2019-02-19T07:41:18.139Z,13.62
2019-02-19T07:43:49.204Z,12.40
2019-02-19T07:46:20.495Z,9.98
2019-02-19T07:48:51.585Z,8.83
2019-02-19T07:51:22.982Z,8.35
2019-02-19T07:53:54.092Z,8.28
2019-02-19T07:56:25.220Z,7.47
2019-02-19T07:58:56.314Z,9.13
2019-02-19T08:01:27.656Z,8.18
2019-02-19T08:03:59.051Z,8.88
2019-02-19T08:06:30.173Z,9.98
2019-02-19T08:09:01.317Z,8.48
2019-02-19T08:11:34.067Z,7.22
2019-02-19T08:14:05.332Z,7.80
2019-02-19T08:16:36.381Z,7.58
2019-02-19T08:19:07.564Z,8.58
2019-02-19T08:21:38.777Z,9.65
2019-02-19T08:24:10.876Z,8.73
2019-02-19T08:26:43.471Z,9.18
2019-02-19T08:29:14.482Z,9.18
2019-02-19T08:31:45.664Z,8.75
2019-02-19T08:34:16.912Z,7.72
2019-02-19T08:36:48.650Z,8.00
2019-02-19T08:39:19.686Z,8.48
2019-02-19T08:41:50.977Z,7.97
2019-02-19T08:44:22.066Z,7.25
2019-02-19T08:46:53.198Z,7.55
2019-02-19T08:49:24.635Z,6.30
2019-02-19T08:51:56.335Z,6.60
2019-02-19T08:54:28.777Z,6.60
2019-02-19T08:56:59.978Z,6.65
2019-02-19T08:59:31.205Z,6.42
2019-02-19T09:02:02.686Z,6.50
2019-02-19T09:04:34.089Z,6.12
2019-02-19T09:07:05.358Z,6.53
2019-02-19T09:09:36.906Z,5.70
2019-02-19T09:12:08.098Z,6.10
2019-02-19T09:14:39.190Z,5.95
2019-02-19T09:17:10.410Z,5.87
2019-02-19T09:19:41.891Z,5.85
2019-02-19T09:22:13.145Z,5.58
2019-02-19T09:24:44.411Z,5.75
2019-02-19T09:27:15.675Z,6.37
2019-02-19T09:29:47.595Z,5.85
2019-02-19T09:32:18.737Z,5.37
2019-02-19T09:34:50.272Z,7.95
2019-02-19T09:37:21.927Z,6.28
2019-02-19T09:39:53.099Z,5.72
2019-02-19T09:42:24.268Z,8.05
2019-02-19T09:44:55.676Z,6.05
2019-02-19T09:47:27.321Z,6.17
2019-02-19T09:49:59.399Z,5.62
2019-02-19T09:52:30.622Z,6.47
2019-02-19T09:55:01.748Z,6.22
2019-02-19T09:57:34.107Z,6.92
2019-02-19T10:00:06.802Z,5.62
2019-02-19T10:02:38.005Z,5.80
2019-02-19T10:05:11.058Z,5.40
2019-02-19T10:07:42.609Z,4.75
2019-02-19T10:10:16.856Z,5.87
2019-02-19T10:12:48.070Z,6.30
2019-02-19T10:15:20.294Z,5.47
2019-02-19T10:17:51.575Z,4.92
2019-02-19T10:20:22.706Z,6.00
2019-02-19T10:22:53.993Z,5.42
2019-02-19T10:25:25.535Z,5.85
2019-02-19T10:27:56.722Z,5.90
2019-02-19T10:30:27.976Z,5.37
2019-02-19T10:32:59.465Z,5.92
2019-02-19T10:35:30.582Z,5.90
2019-02-19T10:38:01.721Z,5.28
2019-02-19T10:40:33.093Z,5.15
2019-02-19T10:43:04.501Z,5.03
2019-02-19T10:45:35.718Z,4.83
2019-02-19T10:48:07.269Z,5.12
2019-02-19T10:50:38.471Z,5.37
2019-02-19T10:53:09.679Z,4.47
2019-02-19T10:55:40.963Z,5.35
2019-02-19T10:58:12.199Z,4.95
2019-02-19T11:00:43.636Z,5.17
2019-02-19T11:03:14.922Z,4.97
2019-02-19T11:05:46.229Z,4.92
2019-02-19T11:08:17.476Z,4.90
2019-02-19T11:10:48.636Z,5.03
2019-02-19T11:13:19.844Z,4.97
2019-02-19T11:15:51.032Z,4.90
2019-02-19T11:18:28.118Z,4.45
2019-02-19T11:20:55.149Z,4.45
2019-02-19T11:23:26.488Z,4.75
2019-02-19T11:25:57.591Z,5.60
2019-02-19T11:28:29.585Z,4.35
2019-02-19T11:31:00.692Z,5.33
2019-02-19T11:33:32.124Z,4.92
2019-02-19T11:36:03.382Z,4.90
2019-02-19T11:38:34.585Z,4.72
2019-02-19T11:41:06.157Z,5.25
2019-02-19T11:43:37.283Z,7.72
2019-02-19T11:46:08.454Z,4.03
2019-02-19T11:48:39.664Z,5.30
2019-02-19T11:51:10.830Z,5.08
2019-02-19T11:53:42.100Z,4.87
2019-02-19T11:56:13.742Z,5.37
2019-02-19T11:58:45.037Z,5.28
2019-02-19T12:01:16.176Z,5.55
2019-02-19T12:03:47.804Z,5.40
2019-02-19T12:06:19.024Z,5.53
2019-02-19T12:08:50.324Z,5.17
2019-02-19T12:11:21.578Z,5.22
2019-02-19T12:13:52.775Z,5.92
2019-02-19T12:16:23.912Z,5.90
2019-02-19T12:18:55.116Z,6.10
2019-02-19T12:21:26.331Z,6.20
2019-02-19T12:23:57.850Z,5.72
2019-02-19T12:26:29.095Z,6.35
2019-02-19T12:29:00.352Z,6.40
2019-02-19T12:31:31.495Z,6.60
2019-02-19T12:34:02.745Z,6.95
2019-02-19T12:36:34.178Z,6.75
2019-02-19T12:39:05.832Z,5.95
2019-02-19T12:41:38.688Z,6.25
2019-02-19T12:44:10.619Z,6.80
2019-02-19T12:46:41.791Z,6.40
2019-02-19T12:49:12.895Z,6.75
2019-02-19T12:51:43.943Z,6.83
2019-02-19T12:54:15.047Z,7.17
2019-02-19T12:56:46.384Z,7.12
2019-02-19T12:59:17.564Z,7.10
2019-02-19T13:01:48.785Z,7.42
2019-02-19T13:04:19.978Z,7.20
2019-02-19T13:06:51.230Z,6.85
2019-02-19T13:09:22.400Z,6.75
2019-02-19T13:11:53.688Z,7.50
2019-02-19T13:14:24.880Z,6.90
2019-02-19T13:16:56.323Z,7.30
2019-02-19T13:19:27.449Z,7.37
2019-02-19T13:21:59.348Z,8.70
2019-02-19T13:24:30.900Z,7.83
2019-02-19T13:27:02.452Z,7.33
2019-02-19T13:29:33.837Z,7.72
2019-02-19T13:32:05.045Z,7.03
2019-02-19T13:34:36.235Z,7.75
2019-02-19T13:37:07.381Z,8.10
2019-02-19T13:39:38.557Z,7.40
2019-02-19T13:42:09.791Z,8.05
2019-02-19T13:44:41.387Z,7.90
2019-02-19T13:47:12.595Z,7.85
2019-02-19T13:49:43.906Z,8.23
2019-02-19T13:52:34.512Z,8.40
2019-02-19T13:55:27.990Z,9.28
2019-02-19T13:57:59.131Z,10.25
2019-02-19T14:00:32.286Z,9.50
2019-02-19T14:03:03.441Z,8.90
2019-02-19T14:05:35.059Z,9.65
2019-02-19T14:08:14.339Z,8.75
2019-02-19T14:10:39.312Z,9.05
2019-02-19T14:13:10.843Z,7.42
2019-02-19T14:15:52.249Z,8.48
2019-02-19T14:18:30.263Z,8.20
2019-02-19T14:21:26.729Z,7.25
2019-02-19T14:24:11.332Z,7.78
2019-02-19T14:27:10.891Z,7.87
2019-02-19T14:30:17.518Z,7.25
2019-02-19T14:33:11.859Z,7.85
2019-02-19T14:36:01.041Z,7.72
2019-02-19T14:38:50.690Z,6.55
2019-02-19T14:41:40.926Z,7.47
2019-02-19T14:44:23.905Z,7.08
2019-02-19T14:47:14.093Z,7.37
2019-02-19T14:50:00.304Z,7.62
2019-02-19T14:52:42.083Z,7.28
2019-02-19T14:55:32.287Z,8.63
2019-02-19T14:58:41.013Z,7.20
2019-02-19T15:01:30.225Z,7.67
2019-02-19T15:04:13.971Z,7.78
2019-02-19T15:07:07.687Z,7.72
2019-02-19T15:10:04.083Z,7.37
2019-02-19T15:12:44.647Z,8.28
2019-02-19T15:15:44.733Z,7.55
2019-02-19T15:18:34.998Z,8.25
2019-02-19T15:21:25.675Z,7.97
2019-02-19T15:24:23.610Z,8.23
2019-02-19T15:27:10.399Z,7.60
2019-02-19T15:30:09.771Z,6.85
2019-02-19T15:32:52.259Z,7.33
2019-02-19T15:35:45.347Z,7.35
2019-02-19T15:38:41.839Z,6.80
2019-02-19T15:41:31.396Z,7.95
2019-02-19T15:44:24.774Z,7.50
2019-02-19T15:47:17.082Z,7.55
2019-02-19T15:50:04.573Z,8.18
2019-02-19T15:52:57.698Z,6.97
2019-02-19T15:55:46.920Z,7.22
2019-02-19T15:58:49.193Z,7.20
2019-02-19T16:01:38.107Z,7.70
2019-02-19T16:04:34.873Z,6.80
2019-02-19T16:07:31.038Z,6.80
2019-02-19T16:10:24.130Z,6.85
2019-02-19T16:13:09.007Z,6.83
2019-02-19T16:15:52.027Z,6.87
2019-02-19T16:18:31.242Z,6.70
2019-02-19T16:21:08.148Z,6.03
2019-02-19T16:23:53.378Z,6.90
2019-02-19T16:26:58.809Z,7.08
2019-02-19T16:29:52.089Z,6.33
2019-02-19T16:32:39.736Z,6.90
2019-02-19T16:35:24.042Z,6.53
2019-02-19T16:38:10.125Z,6.75
2019-02-19T16:41:12.429Z,7.03
2019-02-19T16:44:00.377Z,6.12
2019-02-19T16:47:05.859Z,7.03
2019-02-19T16:50:07.807Z,6.87
2019-02-19T16:52:41.410Z,7.78
2019-02-19T16:55:37.510Z,7.90
2019-02-19T16:58:19.403Z,7.33
2019-02-19T17:00:56.326Z,6.55
2019-02-19T17:03:49.792Z,6.55
2019-02-19T17:06:48.882Z,6.55
2019-02-19T17:09:34.019Z,6.78
2019-02-19T17:12:27.115Z,6.50
2019-02-19T17:15:07.480Z,6.90
2019-02-19T17:17:50.089Z,6.62
2019-02-19T17:20:34.235Z,6.95
2019-02-19T17:23:14.421Z,7.15
2019-02-19T17:25:51.993Z,7.03
2019-02-19T17:28:29.972Z,7.35
2019-02-19T17:31:20.794Z,6.50
2019-02-19T17:34:16.138Z,7.22
2019-02-19T17:37:18.759Z,6.78
2019-02-19T17:40:08.689Z,6.83
2019-02-19T17:42:57.873Z,7.30
2019-02-19T17:45:53.933Z,8.00
2019-02-19T17:48:46.027Z,7.05
2019-02-19T17:51:39.319Z,8.30
2019-02-19T17:54:27.046Z,7.53
2019-02-19T17:57:22.427Z,8.45
2019-02-19T18:00:21.511Z,8.25
2019-02-19T18:03:01.083Z,8.95
2019-02-19T18:05:48.355Z,9.28
2019-02-19T18:08:44.848Z,8.30
2019-02-19T18:11:34.087Z,8.85
2019-02-19T18:14:37.756Z,10.05
2019-02-19T18:17:32.474Z,9.93
2019-02-19T18:20:03.760Z,9.40
2019-02-19T18:22:35.481Z,9.50
2019-02-19T18:25:07.546Z,10.20
2019-02-19T18:27:38.787Z,9.85
2019-02-19T18:30:10.174Z,9.53
2019-02-19T18:32:41.298Z,9.73
2019-02-19T18:35:12.537Z,9.73
2019-02-19T18:37:43.630Z,9.03
2019-02-19T18:40:15.317Z,9.20
2019-02-19T18:42:46.699Z,8.78
2019-02-19T18:45:17.991Z,8.53
2019-02-19T18:47:49.154Z,9.25
2019-02-19T18:50:20.594Z,9.13
2019-02-19T18:52:52.028Z,8.43
2019-02-19T18:55:23.585Z,9.18
2019-02-19T18:57:57.911Z,9.28
2019-02-19T19:00:29.111Z,8.98
2019-02-19T19:03:00.550Z,9.78
2019-02-19T19:05:32.146Z,10.40
2019-02-19T19:08:03.409Z,10.00
2019-02-19T19:10:34.569Z,10.00
2019-02-19T19:13:06.477Z,11.43
2019-02-19T19:15:37.757Z,11.03
2019-02-19T19:18:09.221Z,11.85
2019-02-19T19:20:40.286Z,12.68
2019-02-19T19:23:11.552Z,11.55
2019-02-19T19:25:42.796Z,11.15
2019-02-19T19:28:13.888Z,11.60
2019-02-19T19:30:45.102Z,9.73
2019-02-19T19:33:16.198Z,10.23
2019-02-19T19:35:47.422Z,10.10
2019-02-19T19:38:18.450Z,10.38
2019-02-19T19:40:49.511Z,10.03
2019-02-19T19:43:20.824Z,9.13
2019-02-19T19:45:52.016Z,9.85
2019-02-19T19:48:23.116Z,9.95
2019-02-19T19:50:54.294Z,10.43
2019-02-19T19:53:25.461Z,10.75
2019-02-19T19:55:56.971Z,10.75
2019-02-19T19:58:28.072Z,9.95
2019-02-19T20:00:59.200Z,10.58
2019-02-19T20:03:30.407Z,10.68
2019-02-19T20:06:01.823Z,10.78
2019-02-19T20:08:33.362Z,11.15
2019-02-19T20:11:04.578Z,10.72
2019-02-19T20:13:35.603Z,10.80
2019-02-19T20:16:06.735Z,10.08
2019-02-19T20:18:39.378Z,10.25
2019-02-19T20:21:10.792Z,11.33
2019-02-19T20:23:41.856Z,11.83
2019-02-19T20:26:12.934Z,11.22
2019-02-19T20:28:43.952Z,11.75
2019-02-19T20:31:15.816Z,11.55
2019-02-19T20:33:46.878Z,11.88
2019-02-19T20:36:18.096Z,11.93
2019-02-19T20:38:49.192Z,12.33
2019-02-19T20:41:21.825Z,12.23
2019-02-19T20:43:53.015Z,13.68
2019-02-19T20:46:24.926Z,12.35
2019-02-19T20:48:56.107Z,12.43
2019-02-19T20:51:36.180Z,12.60
2019-02-19T20:54:00.283Z,11.12
2019-02-19T20:56:31.852Z,13.10
2019-02-19T20:59:03.408Z,11.45
2019-02-19T21:01:35.058Z,12.05
2019-02-19T21:04:06.304Z,11.97
2019-02-19T21:06:38.403Z,12.25
2019-02-19T21:09:09.736Z,11.40
2019-02-19T21:11:41.953Z,11.80
2019-02-19T21:14:14.320Z,12.37
2019-02-19T21:16:45.375Z,12.07
2019-02-19T21:19:16.544Z,11.08
2019-02-19T21:21:47.999Z,12.18
2019-02-19T21:24:19.097Z,10.98
2019-02-19T21:26:50.685Z,12.03
2019-02-19T21:29:21.778Z,12.03
2019-02-19T21:31:54.153Z,13.43
2019-02-19T21:34:25.445Z,14.23
2019-02-19T21:36:57.004Z,13.68
2019-02-19T21:39:28.301Z,13.78
2019-02-19T21:41:59.929Z,12.25
2019-02-19T21:44:30.950Z,12.40
2019-02-19T21:47:02.510Z,12.10
2019-02-19T21:49:33.741Z,11.50
2019-02-19T21:52:05.009Z,12.55
2019-02-19T21:54:36.174Z,12.68
2019-02-19T21:57:07.378Z,11.83
2019-02-19T21:59:38.541Z,11.70
2019-02-19T22:02:16.235Z,11.00
2019-02-19T22:04:43.017Z,11.30
2019-02-19T22:07:14.407Z,11.60
2019-02-19T22:09:45.865Z,11.15
2019-02-19T22:12:16.920Z,11.05
2019-02-19T22:14:48.077Z,12.40
2019-02-19T22:17:19.512Z,13.32
2019-02-19T22:19:50.667Z,12.70
2019-02-19T22:22:24.330Z,13.20
2019-02-19T22:24:55.424Z,11.73
2019-02-19T22:27:26.819Z,12.43
2019-02-19T22:29:57.954Z,12.37
2019-02-19T22:32:29.838Z,14.30
2019-02-19T22:35:01.004Z,19.27
2019-02-19T22:37:32.744Z,14.40
2019-02-19T22:40:03.944Z,12.07
2019-02-19T22:42:35.132Z,11.85
2019-02-19T22:45:06.763Z,12.07
2019-02-19T22:47:37.876Z,11.48
2019-02-19T22:50:09.631Z,11.55
2019-02-19T22:52:41.104Z,11.43
2019-02-19T22:55:19.159Z,10.60
2019-02-19T22:57:50.200Z,10.78
2019-02-19T23:00:41.499Z,10.70
2019-02-19T23:03:15.176Z,11.50
2019-02-19T23:05:46.336Z,11.55
2019-02-19T23:08:17.767Z,11.30
2019-02-19T23:10:48.913Z,12.43
2019-02-19T23:13:20.071Z,11.57
2019-02-19T23:15:51.166Z,12.70
2019-02-19T23:18:22.450Z,11.68
2019-02-19T23:20:53.896Z,12.23
2019-02-19T23:23:25.957Z,13.18
2019-02-19T23:25:57.137Z,11.95
2019-02-19T23:28:28.692Z,13.10
2019-02-19T23:31:00.588Z,13.28
2019-02-19T23:33:31.659Z,13.55
2019-02-19T23:36:07.200Z,13.08
2019-02-19T23:38:38.248Z,13.85
2019-02-19T23:41:09.489Z,13.98
2019-02-19T23:43:40.752Z,12.78
2019-02-19T23:46:12.501Z,12.73
2019-02-19T23:48:43.705Z,12.53
2019-02-19T23:51:15.443Z,11.97
2019-02-19T23:53:46.831Z,12.28
2019-02-19T23:56:17.964Z,13.83
2019-02-19T23:58:49.438Z,13.75
